Craig G — WDB5332 — position and weather

sailwx.info

Track history (hours):
 
Tides and Currents Weather Stations Pressure Air Temp Water Temp Dewpoint Dewpoint Depression Visibility Wind Speed Wind Dir Waves Ship Positions

Craig G

Owner: San Diego Towing & Marine Services,Inc., San Diego, CA. More information available from US FCC via Universal Licensing System and Coast Guard Vessel Documentation Center.

Last reported at 2015-Jul-06 22:33 UTC. Time now 2015-Jul-07 11:01 UTC.
Position N 32°42' W 117°14'.

Length 28 m; draft 2 m.

Type: Other ship. MMSI: 366908460.

Date/timePositionNaut miles runAvg speedWind from/ knotsBaromVisibWave heightAir tempDewpointWater temp
2015-Jul-06 22:33N 32°42' W 117°14'8 8.3
2015-Jul-06 21:34N 32°41' W 117°24'1817.9
2015-Jul-06 20:34N 32°48' W 117°43'1717.4
2015-Jul-06 19:33N 32°55' W 118°03'3 1.1
2015-Jul-06 16:34N 32°52' W 118°00'1817.7
2015-Jul-06 15:34N 32°46' W 117°40'1717.1
2015-Jul-06 14:34N 32°40' W 117°21'  
2015-Jul-01 23:33N 32°41' W 117°14'4 3.7
2015-Jul-01 22:33N 32°38' W 117°17'1817.6
2015-Jul-01 21:33N 32°44' W 117°36'1717.3
2015-Jul-01 20:33N 32°50' W 117°56'1717.2
2015-Jul-01 19:33N 32°56' W 118°15'9 9.3
2015-Jul-01 18:33N 32°60' W 118°25'2 2.0
2015-Jul-01 17:33N 32°60' W 118°23'1716.8
2015-Jul-01 16:32N 32°53' W 118°04'1717.0
2015-Jul-01 15:34N 32°47' W 117°46'1716.8
2015-Jul-01 14:34N 32°42' W 117°27'11 0.8
2015-Jun-30 23:32N 32°43' W 117°14'1 1.1
2015-Jun-30 22:33N 32°42' W 117°14'7 7.4
2015-Jun-30 21:33N 32°41' W 117°23'1818.1
2015-Jun-30 20:33N 32°48' W 117°43'1818.0
2015-Jun-30 19:33N 32°54' W 118°02'1717.5
2015-Jun-30 18:33N 33°01' W 118°22'2 1.7
2015-Jun-30 17:33N 33°02' W 118°23'1616.4
2015-Jun-30 16:33N 32°53' W 118°07'1717.1
2015-Jun-30 15:33N 32°48' W 117°47'1716.8
2015-Jun-30 14:34N 32°42' W 117°28'12 0.8
2015-Jun-30 00:14N 32°41' W 117°14'2 1.1
2015-Jun-29 22:24N 32°39' W 117°14'1417.1
2015-Jun-29 21:33N 32°42' W 117°30'1817.9
2015-Jun-29 20:33N 32°48' W 117°50'1817.9
2015-Jun-29 19:33N 32°54' W 118°10'1212.5
2015-Jun-29 18:33N 32°59' W 118°24'2 1.9
2015-Jun-29 17:33N 32°58' W 118°22'1514.9
2015-Jun-29 16:33N 32°53' W 118°05'1616.3
2015-Jun-29 15:34N 32°48' W 117°47'1616.3
2015-Jun-29 14:33N 32°42' W 117°29'1312.7
2015-Jun-29 13:33N 32°41' W 117°14'  
Track history (hours):
 
Tides and Currents Weather Stations Pressure Air Temp Water Temp Dewpoint Dewpoint Depression Visibility Wind Speed Wind Dir Waves Ship Positions

Craig G

Owner: San Diego Towing & Marine Services,Inc., San Diego, CA. More information available from US FCC via Universal Licensing System and Coast Guard Vessel Documentation Center.

Last reported at 2015-Jul-06 22:33 UTC. Time now 2015-Jul-07 11:01 UTC.
Position N 32°42' W 117°14'.

Length 28 m; draft 2 m.

Type: Other ship. MMSI: 366908460.

Date/timePositionNaut miles runAvg speedWind from/ knotsBaromVisibWave heightAir tempDewpointWater temp
2015-Jul-06 22:33N 32°42' W 117°14'8 8.3
2015-Jul-06 21:34N 32°41' W 117°24'1817.9
2015-Jul-06 20:34N 32°48' W 117°43'1717.4
2015-Jul-06 19:33N 32°55' W 118°03'3 1.1
2015-Jul-06 16:34N 32°52' W 118°00'1817.7
2015-Jul-06 15:34N 32°46' W 117°40'1717.1
2015-Jul-06 14:34N 32°40' W 117°21'  
2015-Jul-01 23:33N 32°41' W 117°14'4 3.7
2015-Jul-01 22:33N 32°38' W 117°17'1817.6
2015-Jul-01 21:33N 32°44' W 117°36'1717.3
2015-Jul-01 20:33N 32°50' W 117°56'1717.2
2015-Jul-01 19:33N 32°56' W 118°15'9 9.3
2015-Jul-01 18:33N 32°60' W 118°25'2 2.0
2015-Jul-01 17:33N 32°60' W 118°23'1716.8
2015-Jul-01 16:32N 32°53' W 118°04'1717.0
2015-Jul-01 15:34N 32°47' W 117°46'1716.8
2015-Jul-01 14:34N 32°42' W 117°27'11 0.8
2015-Jun-30 23:32N 32°43' W 117°14'1 1.1
2015-Jun-30 22:33N 32°42' W 117°14'7 7.4
2015-Jun-30 21:33N 32°41' W 117°23'1818.1
2015-Jun-30 20:33N 32°48' W 117°43'1818.0
2015-Jun-30 19:33N 32°54' W 118°02'1717.5
2015-Jun-30 18:33N 33°01' W 118°22'2 1.7
2015-Jun-30 17:33N 33°02' W 118°23'1616.4
2015-Jun-30 16:33N 32°53' W 118°07'1717.1
2015-Jun-30 15:33N 32°48' W 117°47'1716.8
2015-Jun-30 14:34N 32°42' W 117°28'12 0.8
2015-Jun-30 00:14N 32°41' W 117°14'2 1.1
2015-Jun-29 22:24N 32°39' W 117°14'1417.1
2015-Jun-29 21:33N 32°42' W 117°30'1817.9
2015-Jun-29 20:33N 32°48' W 117°50'1817.9
2015-Jun-29 19:33N 32°54' W 118°10'1212.5
2015-Jun-29 18:33N 32°59' W 118°24'2 1.9
2015-Jun-29 17:33N 32°58' W 118°22'1514.9
2015-Jun-29 16:33N 32°53' W 118°05'1616.3
2015-Jun-29 15:34N 32°48' W 117°47'1616.3
2015-Jun-29 14:33N 32°42' W 117°29'1312.7
2015-Jun-29 13:33N 32°41' W 117°14'  

Dump ship's entire track history